Flight Track Log - Related Links

Times and Time Zones

All times are in EDT time to prevent confusion due to time zone crossing. See the UAL4695 flight status page for this flight to view local times or setup timezone preferences in your user account.

Time Position Orientation Groundspeed Altitude Reporting Facility
EDT Latitude Longitude Course Direction KTS MPH feet Rate Location/Type
Wed 06:45:51 PM 32.1978 -81.1103 North 243 280 4,400  Level Jacksonville Center
Wed 06:46:51 PM 32.2564 -81.1264 347° North 250 288 7,000 2,250 Climbing Jacksonville Center
Wed 06:47:51 PM 32.3319 -81.1394 352° North 261 300 8,900 1,800 Climbing Jacksonville Center
Wed 06:48:00 PM 32.6569 -81.1500 North  Level FlightAware Approximate
Wed 06:48:51 PM 32.4197 -81.1550 351° North 288 331 10,600  Level Jacksonville Center
Wed 06:49:00 PM 32.7661 -81.1418 North  Level FlightAware Approximate
Wed 06:49:51 PM 32.5097 -81.1681 353° North 306 352 11,500  Level Jacksonville Center
Wed 06:50:00 PM 32.8750 -81.1282 North  Level FlightAware Approximate
Wed 06:50:51 PM 32.6036 -81.1639 North 353 406 12,500  Level Jacksonville Center
Wed 06:51:00 PM 32.9840 -81.1152 North  Level FlightAware Approximate
Wed 06:51:51 PM 32.7058 -81.1544 North 360 414 13,700  Level Jacksonville Center
Wed 06:52:51 PM 32.8142 -81.1475 North 373 429 15,100 1,350 Climbing Jacksonville Center
Wed 06:53:51 PM 32.9183 -81.1306 North 378 435 16,400 1,300 Climbing Jacksonville Center
Wed 06:54:51 PM 33.0156 -81.0669 29° Northeast 378 435 17,700 1,050 Climbing Jacksonville Center
Wed 06:55:51 PM 33.1125 -80.9978 31° Northeast 383 441 18,500 900 Climbing Jacksonville Center
Wed 06:56:51 PM 33.2119 -80.9361 27° Northeast 393 452 19,500 1,000 Climbing Jacksonville Center
Wed 06:57:51 PM 33.3172 -80.8642 30° Northeast 406 467 20,500 1,200 Climbing Jacksonville Center
Wed 06:58:51 PM 33.4183 -80.7947 30° Northeast 419 482 21,900 1,550 Climbing Jacksonville Center
Wed 06:59:51 PM 33.5217 -80.7300 28° Northeast 414 476 23,600 1,300 Climbing Jacksonville Center
Wed 07:00:51 PM 33.6225 -80.6603 30° Northeast 414 476 24,500 950 Climbing Jacksonville Center
Wed 07:01:51 PM 33.7236 -80.5928 29° Northeast 414 476 25,500 1,100 Climbing Jacksonville Center
Wed 07:02:51 PM 33.8267 -80.5225 30° Northeast 414 476 26,700 1,300 Climbing Jacksonville Center
Wed 07:03:51 PM 33.9256 -80.4522 31° Northeast 414 476 28,100 1,350 Climbing Jacksonville Center
Wed 07:04:51 PM 34.0244 -80.3869 29° Northeast 409 471 29,400 1,091 Climbing Jacksonville Center
Wed 07:07:20 PM 34.2700 -80.2208 29° Northeast 410 472 31,900 1,005 Climbing Washington Center
Wed 07:08:20 PM 34.3728 -80.1511 29° Northeast 410 472 32,900 1,050 Climbing Washington Center
Wed 07:09:20 PM 34.4733 -80.0836 29° Northeast 410 472 34,000 1,059 Climbing Washington Center
Wed 07:10:19 PM 34.5722 -80.0108 31° Northeast 410 472 35,000 504 Climbing Washington Center
Wed 07:11:19 PM 34.6725 -79.9456 28° Northeast 423 487 35,000  Level Washington Center
Wed 07:12:19 PM 34.7797 -79.8681 31° Northeast 435 501 35,000  Level Washington Center
Wed 07:13:20 PM 34.8953 -79.7881 30° Northeast 449 517 35,000  Level Washington Center
Wed 07:14:19 PM 35.0106 -79.7078 30° Northeast 466 536 35,000  Level Washington Center
Wed 07:15:19 PM 35.1261 -79.6272 30° Northeast 472 543 35,000  Level Washington Center
Wed 07:16:19 PM 35.2414 -79.5467 30° Northeast 477 549 35,000  Level Washington Center
Wed 07:17:20 PM 35.3569 -79.4631 31° Northeast 477 549 35,000  Level Washington Center
Wed 07:18:19 PM 35.4722 -79.3794 31° Northeast 477 549 35,000  Level Washington Center
Wed 07:19:19 PM 35.5833 -79.3003 30° Northeast 471 542 35,000  Level Washington Center
Wed 07:20:20 PM 35.6964 -79.2136 32° Northeast 471 542 35,000  Level Washington Center
Wed 07:21:20 PM 35.8117 -79.1292 31° Northeast 477 549 35,000  Level Washington Center
Wed 07:22:20 PM 35.9375 -79.0375 31° Northeast 477 549 35,000  Level Washington Center
Wed 07:23:20 PM 36.0547 -78.9525 30° Northeast 477 549 35,000  Level Washington Center
Wed 07:24:20 PM 36.1675 -78.8672 31° Northeast 477 549 35,000  Level Washington Center
Wed 07:25:20 PM 36.2825 -78.7844 30° Northeast 477 549 35,000 -600 Level Washington Center
Wed 07:26:20 PM 36.3933 -78.6986 32° Northeast 477 549 33,800 -1,600 Descending Washington Center
Wed 07:27:20 PM 36.5003 -78.5969 37° Northeast 477 549 31,800 -1,412 Descending Washington Center
Wed 07:28:19 PM 36.5561 -78.4414 66° East 464 534 31,000 -403 Descending Washington Center
Wed 07:29:19 PM 36.5975 -78.2747 73° East 469 540 31,000  Level Washington Center
Wed 07:30:19 PM 36.6339 -78.1442 71° East 484 557 31,000 -350 Level Washington Center
Wed 07:31:19 PM 36.6836 -77.9461 73° East 493 567 30,300 -496 Descending Washington Center
Wed 07:32:20 PM 36.7264 -77.7869 71° East 493 567 30,000 -150 Descending Washington Center
Wed 07:33:19 PM 36.7731 -77.6247 70° East 493 567 30,000  Level Washington Center
Wed 07:34:19 PM 36.8567 -77.4947 51° Northeast 479 551 30,000  Level Washington Center
Wed 07:35:19 PM 36.9806 -77.4456 18° North 436 502 30,000  Level Washington Center
Wed 07:36:20 PM 37.1008 -77.4875 344° North 403 464 30,000  Level Washington Center
Wed 07:37:19 PM 37.2211 -77.5272 345° North 421 484 30,000  Level Washington Center
Wed 07:38:20 PM 37.3469 -77.4833 15° North 440 506 30,000  Level Washington Center
Wed 07:39:20 PM 37.4689 -77.4183 23° Northeast 450 518 30,000  Level Washington Center
Wed 07:40:20 PM 37.5931 -77.3531 23° Northeast 464 534 30,000  Level Washington Center
Wed 07:41:19 PM 37.7150 -77.2850 24° Northeast 475 547 30,000  Level Washington Center
Wed 07:42:19 PM 37.8136 -77.2319 23° Northeast 475 547 30,000  Level Washington Center
Wed 07:43:20 PM 37.9608 -77.1536 23° Northeast 485 558 30,000  Level Washington Center
Wed 07:44:20 PM 38.0825 -77.0875 23° Northeast 485 558 30,000  Level Washington Center
Wed 07:45:20 PM 38.2064 -77.0186 24° Northeast 479 551 30,000  Level Washington Center
Wed 07:46:19 PM 38.3133 -76.9625 22° Northeast 479 551 30,000  Level Washington Center
Wed 07:47:20 PM 38.4392 -76.8958 23° Northeast 473 544 30,000  Level Washington Center
Wed 07:48:20 PM 38.5608 -76.8264 24° Northeast 478 550 30,000  Level Washington Center
Wed 07:49:19 PM 38.6972 -76.7433 25° Northeast 486 559 30,000  Level Washington Center
Wed 07:50:20 PM 38.8025 -76.6333 39° Northeast 481 554 30,000  Level Washington Center
Wed 07:51:19 PM 38.9036 -76.5144 42° Northeast 481 554 30,000 -50 Level Washington Center
Wed 07:52:20 PM 39.0067 -76.3956 42° Northeast 486 559 29,900 -700 Descending Washington Center
Wed 07:53:19 PM 39.1053 -76.2817 42° Northeast 486 559 28,600 -1,000 Descending Washington Center
Wed 07:54:20 PM 39.1828 -76.1914 42° Northeast 480 552 27,900 -793 Descending Washington Center
Wed 07:55:20 PM 39.3042 -76.0503 42° Northeast 480 552 27,000 -450 Descending Washington Center
Wed 07:56:20 PM 39.4047 -75.9381 41° Northeast 480 552 27,000  Level Washington Center
Wed 07:57:20 PM 39.5050 -75.8203 42° Northeast 475 547 27,000 -800 Level Washington Center
Wed 07:58:20 PM 39.6072 -75.6992 42° Northeast 480 552 25,400 -2,000 Descending Washington Center
Wed 07:59:20 PM 39.7072 -75.5781 43° Northeast 480 552 23,000 -2,550 Descending Washington Center
Wed 08:00:20 PM 39.7989 -75.4644 44° Northeast 473 544 20,300 -2,900 Descending Washington Center
Wed 08:01:20 PM 39.8944 -75.3508 42° Northeast 473 544 17,200 -3,076 Descending Washington Center
Wed 08:02:19 PM 39.9817 -75.2422 44° Northeast 451 519 14,200 -1,933 Descending Washington Center
Wed 08:04:20 PM 40.1372 -75.0514 43° Northeast 385 443 11,400 -1,267 Descending Washington Center
Wed 08:05:19 PM 40.2014 -74.9722 43° Northeast 343 395 10,400 -1,000 Descending Washington Center
Wed 08:06:20 PM 40.2614 -74.8983 43° Northeast 307 353 9,400 -750 Descending Washington Center
Wed 08:07:19 PM 40.2547 -74.8222 97° East 223 257 8,900 -202 Descending Washington Center
Wed 08:08:19 PM 40.2069 -74.8444 200° South 91 105 9,000  Climbing Washington Center
Wed 08:09:19 PM 40.1678 -74.8939 224° Southwest 138 159 8,900  Descending Washington Center
Wed 08:10:19 PM 40.1661 -74.9561 268° West 144 166 9,000 50 Climbing Washington Center
Wed 08:11:20 PM 40.2242 -74.9447 North 108 124 9,000  Level Washington Center
Wed 08:12:20 PM 40.2739 -74.8736 47° Northeast 182 209 9,000 -50 Level Washington Center
Wed 08:13:20 PM 40.2319 -74.8281 140° Southeast 118 136 8,900 -50 Descending Washington Center
Wed 08:14:19 PM 40.1925 -74.8719 220° Southwest 93 107 8,900 50 Level Washington Center
Wed 08:15:20 PM 40.1594 -74.9236 230° Southwest 145 167 9,000 50 Climbing Washington Center
Wed 08:16:20 PM 40.1911 -74.9722 310° West 136 157 9,000 -50 Level Washington Center
Wed 08:17:20 PM 40.2511 -74.9119 37° Northeast 127 146 8,900  Descending Washington Center
Wed 08:18:20 PM 40.2631 -74.8331 79° East 173 199 9,000 50 Climbing Washington Center
Wed 08:19:20 PM 40.2133 -74.8389 185° South 87 100 9,000  Level Washington Center
Wed 08:20:20 PM 40.1761 -74.8856 224° Southwest 122 140 9,000  Level Washington Center
Wed 08:21:20 PM 40.1597 -74.9428 249° West 161 185 9,000  Level Washington Center
Wed 08:22:20 PM 40.2139 -74.9586 347° North 112 129 9,000  Level Washington Center
Wed 08:23:16 PM 40.2667 -74.9000 40° Northeast 284 327 9,000 -466 Level New York TRACON
Wed 08:24:16 PM 40.3167 -74.8167 52° Northeast 315 362 8,100 -600 Descending New York TRACON
Wed 08:25:16 PM 40.3833 -74.7333 44° Northeast 280 322 7,800 -600 Descending New York TRACON
Wed 08:26:16 PM 40.4333 -74.6667 45° Northeast 273 314 6,900 -850 Descending New York TRACON
Wed 08:27:16 PM 40.5000 -74.6500 11° North 262 302 6,100 -267 Descending New York TRACON
Wed 08:29:16 PM 40.6500 -74.5833 19° North 262 302 6,100  Level New York TRACON
Wed 08:31:16 PM 40.7833 -74.5333 16° North 260 299 6,100  Level New York TRACON

Login

Don't have an account? Register now (free) for customized features, flight alerts, and more!